KDAB/DAB METAR and TAF weather

Enter ICAO airport designator
Station Type Date Time Source
KDAB METAR 2019/11/18 03:53 UTC NOAA

KDAB 180353Z 28006KT 10SM OVC015 11/10 A2989 RMK AO2 SLP122 T01110100


Station Type Date Time Source
KDAB Decoded METAR 2019/11/18 03:53 UTC NOAA

DAYTONA BEACH INTERNATIONAL, FL, United States (KDAB) 29-10N 81-04W 9M
Nov 17, 2019 - 10:53 PM EST / 2019.11.18 0353 UTC
Wind: from the W (280 degrees) at 7 MPH (6 KT):0
Visibility: 10 mile(s):0
Sky conditions: overcast
Temperature: 52.0 F (11.1 C)
Dew Point: 50.0 F (10.0 C)
Relative Humidity: 92%
Pressure (altimeter): 29.89 in. Hg (1012 hPa)
ob: KDAB 180353Z 28006KT 10SM OVC015 11/10 A2989 RMK AO2 SLP122 T01110100
cycle: 4

Station Type Date Time Source
KDAB TAF 2019/11/17 18:37 UTC NOAA

TAF KDAB 171730Z 1718/1818 32010G17KT P6SM OVC010
FM172300 32011KT P6SM SCT010 BKN012
FM180200 33008KT P6SM SCT020 BKN030
FM181500 31007KT P6SM SCT035

Example: see airport list